Time;durP1;ratioP1;P1;durP2;ratioP2;P2;SDS_P1;SDS_P2;PMS_P1;PMS_P2;Temp;Humidity;BMP_temperature;BMP_pressure;BME280_temperature;BME280_humidity;BME280_pressure;Samples;Min_cycle;Max_cycle;Signal;HPM_P1;HPM_P2
2021/04/08 00:18:36;;;;;;;13.13;8.10;;;;;;;-0.28;100.00;99803.22;20855391;28;21167;-53
2021/04/08 00:28:36;;;;;;;10.30;6.20;;;;;;;0.03;100.00;99809.25;20784290;28;20311;-51
2021/04/08 00:38:37;;;;;;;8.90;6.47;;;;;;;0.31;100.00;99818.03;20794969;28;20477;-53
2021/04/08 00:48:38;;;;;;;8.53;5.87;;;;;;;0.42;100.00;99807.19;20836034;28;20467;-51
2021/04/08 00:58:39;;;;;;;11.10;7.00;;;;;;;0.66;100.00;99811.69;20798600;28;20407;-52
2021/04/08 01:08:40;;;;;;;8.60;5.80;;;;;;;0.78;99.87;99810.41;20815241;28;20300;-52
2021/04/08 01:28:39;;;;;;;11.03;6.57;;;;;;;0.84;98.87;99820.75;20999546;27;21173;-51
2021/04/08 01:38:39;;;;;;;10.77;6.90;;;;;;;0.98;99.33;99818.50;20877708;28;20357;-54
2021/04/08 01:48:43;;;;;;;10.37;7.23;;;;;;;0.96;98.03;99828.22;20926010;28;20244;-53
2021/04/08 01:58:44;;;;;;;10.03;6.77;;;;;;;1.01;99.02;99823.66;20871500;28;20219;-54
2021/04/08 02:08:47;;;;;;;8.50;6.73;;;;;;;1.16;98.06;99824.06;20937173;28;20742;-54
2021/04/08 02:18:54;;;;;;;10.03;7.23;;;;;;;0.99;98.03;99772.94;20964909;28;20294;-52
2021/04/08 02:28:55;;;;;;;9.30;7.33;;;;;;;1.36;97.05;99834.72;20940207;28;20316;-52
2021/04/08 02:38:55;;;;;;;10.33;7.80;;;;;;;1.46;95.58;99841.38;20901382;28;20220;-52
2021/04/08 02:58:54;;;;;;;12.90;8.50;;;;;;;1.34;95.11;99841.81;20880707;27;21166;-56
2021/04/08 03:18:52;;;;;;;11.17;7.80;;;;;;;1.15;96.77;99840.72;20892567;27;879110;-53
2021/04/08 03:28:54;;;;;;;10.10;7.13;;;;;;;1.13;96.73;99850.41;20855994;28;20911;-57
2021/04/08 03:38:54;;;;;;;9.67;7.47;;;;;;;1.34;97.18;99855.81;20867203;28;20286;-53
2021/04/08 03:48:57;;;;;;;11.77;8.17;;;;;;;1.59;97.10;99868.09;20931072;28;20230;-61
2021/04/08 03:58:57;;;;;;;11.60;9.13;;;;;;;1.78;95.33;99870.06;20940494;28;20280;-52
2021/04/08 04:08:58;;;;;;;12.27;9.50;;;;;;;1.91;94.24;99873.09;20910886;28;20220;-53
2021/04/08 04:18:59;;;;;;;14.03;9.97;;;;;;;2.01;94.30;99871.00;20848677;28;20224;-52
2021/04/08 04:49:00;;;;;;;12.47;9.77;;;;;;;2.35;92.95;99881.97;20894145;27;20652;-54
2021/04/08 04:59:02;;;;;;;13.40;10.27;;;;;;;2.44;92.68;99886.88;20839702;28;20224;-52
2021/04/08 05:09:03;;;;;;;14.70;12.10;;;;;;;2.56;94.06;99900.50;20849046;28;20220;-53
2021/04/08 05:19:03;;;;;;;24.10;18.20;;;;;;;2.65;93.56;99911.56;20835425;28;20281;-52
2021/04/08 05:29:04;;;;;;;20.20;17.80;;;;;;;2.76;94.89;99921.69;20806198;28;20224;-52
2021/04/08 05:39:05;;;;;;;25.63;18.83;;;;;;;2.71;96.29;99937.66;20792224;28;21508;-52
2021/04/08 05:49:05;;;;;;;16.57;14.73;;;;;;;2.81;97.43;99948.69;20773153;28;20232;-54
2021/04/08 05:59:06;;;;;;;14.57;12.33;;;;;;;2.89;97.98;99968.59;20747236;28;20258;-55
2021/04/08 06:19:02;;;;;;;19.03;13.83;;;;;;;2.91;97.41;99976.41;20909982;27;20605;-64
2021/04/08 06:29:03;;;;;;;17.37;15.30;;;;;;;2.98;98.28;99998.13;20958953;28;20302;-54
2021/04/08 06:39:04;;;;;;;18.10;16.20;;;;;;;3.04;98.29;99998.72;20959844;28;20222;-54
2021/04/08 06:49:35;;;;;;;16.93;15.13;;;;;;;3.36;97.87;100015.09;20937443;28;20235;-54
2021/04/08 06:59:35;;;;;;;16.77;14.93;;;;;;;3.59;96.58;100036.13;20915148;28;20320;-53
2021/04/08 07:09:37;;;;;;;14.53;13.13;;;;;;;4.33;95.84;100037.41;20922543;28;20315;-56
2021/04/08 07:19:41;;;;;;;16.97;15.27;;;;;;;4.86;93.04;100052.66;20964162;28;20614;-58
2021/04/08 07:29:41;;;;;;;15.80;14.20;;;;;;;5.44;90.99;100074.63;20845698;28;20238;-54
2021/04/08 07:39:44;;;;;;;15.47;13.97;;;;;;;5.80;88.36;100086.13;20869873;28;20231;-54
2021/04/08 07:49:46;;;;;;;14.40;13.00;;;;;;;6.33;85.65;100089.75;20878930;28;20230;-54
2021/04/08 07:59:46;;;;;;;12.10;10.90;;;;;;;5.81;85.48;100113.44;20897103;28;20212;-54
2021/04/08 08:09:48;;;;;;;9.60;8.70;;;;;;;4.84;88.36;100145.25;20875541;28;20258;-55
2021/04/08 08:19:49;;;;;;;11.47;10.13;;;;;;;4.51;92.36;100141.44;20906739;28;20279;-54
2021/04/08 08:29:57;;;;;;;10.17;9.07;;;;;;;4.58;95.09;100154.34;20866282;28;20245;-55
2021/04/08 08:39:58;;;;;;;11.30;10.10;;;;;;;4.80;93.96;100159.56;20854764;28;20218;-55
2021/04/08 08:50:04;;;;;;;10.77;9.73;;;;;;;4.99;92.69;100196.63;20860703;28;20238;-55
2021/04/08 09:00:10;;;;;;;9.43;8.53;;;;;;;4.98;93.21;100211.63;20882194;28;20249;-56
2021/04/08 09:10:13;;;;;;;6.57;5.97;;;;;;;4.30;93.21;100236.50;20980949;28;20236;-56
2021/04/08 09:20:18;;;;;;;10.17;5.93;;;;;;;4.33;96.67;100243.47;20961192;28;20224;-56
2021/04/08 09:30:44;;;;;;;10.37;7.70;;;;;;;4.18;95.21;100263.41;20952352;28;20310;-63
2021/04/08 09:40:45;;;;;;;7.43;4.73;;;;;;;4.12;97.95;100263.63;20966071;28;20236;-67
2021/04/08 10:38:32;;;;;;;6.57;5.20;;;;;;;7.61;82.63;100327.22;20827572;27;8015918;-54
2021/04/08 10:48:34;;;;;;;7.07;5.87;;;;;;;6.98;83.14;100343.66;21088051;28;20250;-55
2021/04/08 10:58:34;;;;;;;6.50;5.43;;;;;;;7.15;83.25;100340.16;21121706;28;20213;-54
2021/04/08 11:08:35;;;;;;;5.70;5.10;;;;;;;7.68;78.97;100349.84;21104977;28;20260;-54
2021/04/08 11:18:35;;;;;;;7.83;6.47;;;;;;;7.92;78.74;100341.47;21114227;28;20301;-54
2021/04/08 11:28:42;;;;;;;4.77;4.03;;;;;;;7.97;78.99;100341.19;21091142;28;20214;-54
2021/04/08 11:38:42;;;;;;;7.30;4.90;;;;;;;7.77;79.70;100375.94;21052611;28;20266;-58
2021/04/08 11:48:46;;;;;;;4.38;3.60;;;;;;;7.99;76.03;100371.22;21037287;28;20224;-54
2021/04/08 11:58:46;;;;;;;10.83;5.23;;;;;;;8.97;73.40;100359.59;21010132;28;20229;-56
2021/04/08 12:08:52;;;;;;;5.57;4.20;;;;;;;8.87;68.87;100382.38;21039762;28;21072;-56
2021/04/08 12:18:53;;;;;;;8.27;5.20;;;;;;;8.80;69.74;100378.34;21019814;28;20243;-55
2021/04/08 12:28:53;;;;;;;8.03;5.17;;;;;;;9.18;68.60;100375.28;21016985;28;20714;-58
2021/04/08 12:38:54;;;;;;;5.93;3.90;;;;;;;8.74;68.02;100397.28;21021712;28;20223;-55
2021/04/08 12:48:54;;;;;;;4.93;3.53;;;;;;;8.48;68.44;100405.84;21012768;28;20259;-73
2021/04/08 12:58:55;;;;;;;4.57;3.97;;;;;;;9.34;69.30;100403.59;21032362;28;20302;-57
2021/04/08 13:08:55;;;;;;;7.10;4.68;;;;;;;9.64;66.12;100395.66;21024804;28;20553;-65
2021/04/08 13:18:55;;;;;;;3.87;2.80;;;;;;;8.77;60.99;100442.38;20945168;28;20270;-62
2021/04/08 13:28:56;;;;;;;4.33;3.37;;;;;;;8.93;65.45;100423.75;20947657;28;20238;-55
2021/04/08 13:38:56;;;;;;;4.20;3.17;;;;;;;8.36;63.67;100459.69;20968713;28;20225;-55
2021/04/08 13:48:57;;;;;;;4.60;3.57;;;;;;;7.67;65.87;100475.63;20946904;28;20222;-54
2021/04/08 13:58:57;;;;;;;9.70;7.23;;;;;;;5.56;83.15;100520.50;20943976;28;20311;-53
2021/04/08 14:08:58;;;;;;;8.97;8.03;;;;;;;5.07;98.87;100525.13;20955322;28;20745;-63
2021/04/08 14:19:00;;;;;;;7.03;6.40;;;;;;;5.67;100.00;100520.97;20944206;28;20210;-53
2021/04/08 14:29:00;;;;;;;7.30;6.17;;;;;;;5.71;100.00;100530.50;20958349;28;20293;-54
2021/04/08 14:39:01;;;;;;;6.97;6.23;;;;;;;5.69;100.00;100527.03;20939607;28;20226;-54
2021/04/08 14:49:01;;;;;;;6.47;5.77;;;;;;;6.38;100.00;100530.34;20964730;28;20464;-55
2021/04/08 14:59:03;;;;;;;5.63;4.93;;;;;;;6.72;95.80;100548.25;20975928;28;20245;-54
2021/04/08 15:09:04;;;;;;;6.90;5.13;;;;;;;6.54;88.76;100539.31;20969672;28;20562;-62
2021/04/08 15:19:05;;;;;;;6.57;5.63;;;;;;;6.88;89.01;100576.66;20957271;28;20218;-54
2021/04/08 15:29:05;;;;;;;4.93;4.53;;;;;;;6.85;83.76;100576.81;20979551;28;20219;-57
2021/04/08 15:39:06;;;;;;;4.63;3.93;;;;;;;6.77;83.76;100586.88;20967309;28;20221;-62
2021/04/08 15:49:06;;;;;;;6.27;5.33;;;;;;;6.64;83.17;100612.22;20973261;28;20249;-59
2021/04/08 15:59:07;;;;;;;8.10;6.80;;;;;;;6.73;81.90;100614.50;21018337;28;20486;-61
2021/04/08 16:09:07;;;;;;;7.03;5.73;;;;;;;6.72;80.08;100633.97;21028561;28;20691;-55
2021/04/08 16:19:11;;;;;;;5.97;4.50;;;;;;;7.00;74.83;100644.25;21004991;28;20278;-59
2021/04/08 16:29:15;;;;;;;6.90;5.30;;;;;;;7.20;71.48;100653.97;21022294;28;20711;-63
2021/04/08 16:39:16;;;;;;;3.60;3.27;;;;;;;6.95;71.87;100666.59;21038765;28;20251;-56
2021/04/08 16:49:17;;;;;;;4.13;3.00;;;;;;;6.48;71.35;100672.16;20902294;28;20222;-58
2021/04/08 16:59:17;;;;;;;11.50;8.23;;;;;;;6.03;73.93;100686.38;20976198;28;20304;-53
2021/04/08 17:09:18;;;;;;;17.70;11.30;;;;;;;5.67;75.65;100704.50;20961601;28;20942;-61
2021/04/08 17:19:18;;;;;;;6.77;4.97;;;;;;;5.42;80.83;100715.16;20970647;28;20230;-56
2021/04/08 17:29:20;;;;;;;8.00;5.80;;;;;;;5.53;82.07;100737.72;21012214;28;20267;-58
2021/04/08 17:39:21;;;;;;;10.57;7.33;;;;;;;5.58;84.52;100762.22;20968592;28;20234;-53
2021/04/08 17:49:21;;;;;;;14.87;9.77;;;;;;;5.69;85.79;100789.16;21018677;28;20864;-53
2021/04/08 17:59:22;;;;;;;12.23;8.37;;;;;;;5.58;87.23;100799.28;21032565;28;20221;-53
2021/04/08 18:09:23;;;;;;;12.27;7.23;;;;;;;5.09;90.15;100824.78;21053309;28;20237;-57
2021/04/08 18:19:25;;;;;;;12.23;9.25;;;;;;;4.74;92.87;100843.59;20922083;28;20291;-55
2021/04/08 18:29:25;;;;;;;8.43;6.10;;;;;;;4.70;92.77;100856.94;20949002;28;20225;-55
2021/04/08 18:39:26;;;;;;;6.13;5.05;;;;;;;4.78;92.88;100871.69;20927392;28;21642;-55
2021/04/08 18:49:27;;;;;;;8.30;5.10;;;;;;;4.71;94.28;100890.38;20973087;28;20224;-53
2021/04/08 18:59:31;;;;;;;6.87;5.40;;;;;;;4.49;95.81;100894.59;20969090;28;20245;-55
2021/04/08 19:09:32;;;;;;;14.53;9.23;;;;;;;4.35;97.12;100891.47;20934072;28;20285;-55
2021/04/08 19:19:32;;;;;;;8.93;6.60;;;;;;;4.32;98.81;100918.00;20991111;28;20244;-55
2021/04/08 19:29:33;;;;;;;10.20;6.87;;;;;;;4.37;99.59;100900.22;20939884;28;20226;-55
2021/04/08 19:39:35;;;;;;;5.40;4.90;;;;;;;4.29;97.38;100911.03;20959471;28;20228;-55
2021/04/08 19:49:36;;;;;;;5.67;4.60;;;;;;;4.26;97.73;100924.31;20916363;28;21014;-56
2021/04/08 19:59:38;;;;;;;7.30;4.73;;;;;;;4.25;96.78;100927.00;20941086;28;20228;-55
2021/04/08 20:09:39;;;;;;;9.80;6.67;;;;;;;4.20;96.44;100928.94;20937344;28;20938;-56
2021/04/08 20:19:40;;;;;;;8.27;5.70;;;;;;;4.08;96.91;100934.56;20960560;28;20943;-56
2021/04/08 20:29:41;;;;;;;11.07;7.80;;;;;;;3.93;97.69;100931.44;20931612;28;20222;-54
2021/04/08 20:39:42;;;;;;;10.33;7.00;;;;;;;3.79;98.09;100949.41;20969961;28;20690;-55
2021/04/08 20:49:49;;;;;;;7.60;5.73;;;;;;;3.47;98.81;100952.88;20987743;28;20286;-54
2021/04/08 20:59:50;;;;;;;8.07;5.20;;;;;;;3.28;100.00;100961.28;20972957;28;20240;-57
2021/04/08 21:09:51;;;;;;;9.27;6.60;;;;;;;3.27;100.00;100976.22;21015342;28;20237;-54
2021/04/08 21:19:58;;;;;;;10.97;5.77;;;;;;;3.19;100.00;100984.31;21035261;28;20234;-54
2021/04/08 21:29:59;;;;;;;6.43;5.77;;;;;;;3.05;100.00;100996.09;21053521;28;20235;-59
2021/04/08 21:40:00;;;;;;;29.27;17.93;;;;;;;3.02;100.00;101004.94;21043800;28;20229;-54
2021/04/08 21:50:02;;;;;;;14.57;10.40;;;;;;;3.15;100.00;101019.56;21049496;28;20221;-54
2021/04/08 22:00:08;;;;;;;14.23;9.57;;;;;;;3.30;100.00;101026.28;21050394;28;20750;-55
2021/04/08 22:10:10;;;;;;;12.27;8.27;;;;;;;3.39;100.00;101027.81;21041557;28;20303;-54
2021/04/08 22:20:13;;;;;;;11.87;7.30;;;;;;;3.35;100.00;101020.91;21057558;28;20241;-54
2021/04/08 22:30:14;;;;;;;11.53;6.30;;;;;;;3.39;100.00;101038.38;21066327;28;20348;-53
2021/04/08 22:40:16;;;;;;;13.47;7.70;;;;;;;3.38;100.00;101041.94;21067315;28;20231;-54
2021/04/08 22:50:21;;;;;;;15.00;8.97;;;;;;;3.34;100.00;101038.50;21065026;28;20650;-54
2021/04/08 23:00:25;;;;;;;12.87;7.00;;;;;;;3.22;100.00;101041.41;21021870;28;20242;-53
2021/04/08 23:10:28;;;;;;;9.63;6.60;;;;;;;3.03;100.00;101051.50;21054805;28;20685;-54
2021/04/08 23:20:29;;;;;;;8.83;6.20;;;;;;;2.90;100.00;101056.16;21033154;28;20222;-65
2021/04/08 23:40:38;;;;;;;11.13;6.73;;;;;;;2.68;100.00;101054.00;20597989;27;8017853;-54
